createdAt,value
2022-08-26T00:01:44.759Z,99.90
2022-08-26T00:04:12.442Z,99.90
2022-08-26T00:06:45.950Z,99.90
2022-08-26T00:09:13.551Z,99.90
2022-08-26T00:11:47.276Z,99.90
2022-08-26T00:14:17.992Z,99.90
2022-08-26T00:16:48.057Z,99.90
2022-08-26T00:19:16.971Z,99.90
2022-08-26T00:21:45.047Z,99.90
2022-08-26T00:24:11.889Z,99.90
2022-08-26T00:26:39.189Z,99.90
2022-08-26T00:29:08.345Z,99.90
2022-08-26T00:31:36.287Z,99.90
2022-08-26T00:34:04.210Z,99.90
2022-08-26T00:36:31.827Z,99.90
2022-08-26T00:38:58.996Z,99.90
2022-08-26T00:41:25.754Z,99.90
2022-08-26T00:43:52.911Z,99.90
2022-08-26T00:46:34.655Z,99.90
2022-08-26T00:49:17.840Z,99.90
2022-08-26T00:51:49.230Z,99.90
2022-08-26T00:54:17.584Z,99.90
2022-08-26T00:56:57.673Z,99.90
2022-08-26T00:59:27.396Z,99.90
2022-08-26T01:01:54.438Z,99.90
2022-08-26T01:04:24.209Z,99.90
2022-08-26T01:06:54.274Z,99.90
2022-08-26T01:09:23.178Z,99.90
2022-08-26T01:11:53.970Z,99.90
2022-08-26T01:14:24.345Z,99.90
2022-08-26T01:16:51.383Z,99.90
2022-08-26T01:19:31.694Z,99.90
2022-08-26T01:22:02.604Z,99.90
2022-08-26T01:24:30.993Z,99.90
2022-08-26T01:27:04.450Z,99.90
2022-08-26T01:29:33.934Z,99.90
2022-08-26T01:32:05.065Z,99.90
2022-08-26T01:34:35.977Z,99.90
2022-08-26T01:37:25.911Z,99.90
2022-08-26T01:39:57.483Z,99.90
2022-08-26T01:42:27.317Z,99.90
2022-08-26T01:45:05.641Z,99.90
2022-08-26T01:47:37.028Z,99.90
2022-08-26T01:50:09.801Z,99.90
2022-08-26T01:52:39.402Z,99.90
2022-08-26T01:55:07.185Z,99.90
2022-08-26T01:57:34.460Z,99.90
2022-08-26T02:00:08.058Z,99.90
2022-08-26T02:02:34.745Z,99.90
2022-08-26T02:05:10.867Z,99.90
2022-08-26T02:07:40.525Z,99.90
2022-08-26T02:10:07.843Z,99.90
2022-08-26T02:12:36.197Z,99.90
2022-08-26T02:15:11.137Z,99.90
2022-08-26T02:17:43.337Z,99.90
2022-08-26T02:20:14.860Z,99.90
2022-08-26T02:22:43.302Z,99.90
2022-08-26T02:25:22.892Z,99.90
2022-08-26T02:27:50.062Z,99.90
2022-08-26T02:30:25.337Z,99.90
2022-08-26T02:32:53.072Z,99.90
2022-08-26T02:35:22.148Z,99.90
2022-08-26T02:37:51.857Z,99.90
2022-08-26T02:40:26.604Z,99.90
2022-08-26T02:42:55.866Z,99.90
2022-08-26T02:45:24.962Z,99.90
2022-08-26T02:47:54.222Z,99.90
2022-08-26T02:50:25.913Z,99.90
2022-08-26T02:52:53.064Z,99.90
2022-08-26T02:55:20.216Z,99.90
2022-08-26T02:57:49.690Z,99.90
2022-08-26T03:00:18.612Z,99.90
2022-08-26T03:02:45.179Z,99.90
2022-08-26T03:05:19.506Z,99.90
2022-08-26T03:07:47.146Z,99.90
2022-08-26T03:10:15.790Z,99.90
2022-08-26T03:12:47.445Z,99.90
2022-08-26T03:15:18.451Z,99.90
2022-08-26T03:17:48.952Z,99.90
2022-08-26T03:20:18.875Z,99.90
2022-08-26T03:22:47.274Z,99.90
2022-08-26T03:25:17.232Z,99.90
2022-08-26T03:27:44.548Z,99.90
2022-08-26T03:30:33.607Z,99.90
2022-08-26T03:33:02.485Z,99.90
2022-08-26T03:35:30.670Z,99.90
2022-08-26T03:37:57.453Z,99.90
2022-08-26T03:40:24.756Z,99.90
2022-08-26T03:42:55.678Z,99.90
2022-08-26T03:45:22.310Z,99.90
2022-08-26T03:47:48.885Z,99.90
2022-08-26T03:50:22.965Z,99.90
2022-08-26T03:52:51.516Z,99.90
2022-08-26T03:55:23.767Z,99.90
2022-08-26T03:57:51.246Z,99.90
2022-08-26T04:00:36.556Z,99.90
2022-08-26T04:03:03.838Z,99.90
2022-08-26T04:05:32.181Z,99.90
2022-08-26T04:07:58.801Z,99.90
2022-08-26T04:10:29.266Z,99.90
2022-08-26T04:13:00.701Z,99.90
2022-08-26T04:15:29.792Z,99.90
2022-08-26T04:17:57.553Z,99.90
2022-08-26T04:20:25.276Z,99.90
2022-08-26T04:22:54.187Z,99.90
2022-08-26T04:25:21.613Z,99.90
2022-08-26T04:27:48.440Z,99.90
2022-08-26T04:30:15.879Z,99.90
2022-08-26T04:32:43.777Z,99.90
2022-08-26T04:35:11.174Z,99.90
2022-08-26T04:37:40.076Z,99.90
2022-08-26T04:40:12.918Z,99.90
2022-08-26T04:42:42.537Z,99.90
2022-08-26T04:45:10.287Z,99.90
2022-08-26T04:47:38.471Z,99.90
2022-08-26T04:50:06.882Z,99.90
2022-08-26T04:52:36.469Z,99.90
2022-08-26T04:55:03.972Z,99.90
2022-08-26T04:57:33.941Z,99.90
2022-08-26T05:00:00.537Z,99.90
2022-08-26T05:02:28.511Z,99.90
2022-08-26T05:04:55.089Z,99.90
2022-08-26T05:07:21.693Z,99.90
2022-08-26T05:09:48.941Z,99.90
2022-08-26T05:12:16.500Z,99.90
2022-08-26T05:14:46.293Z,99.90
2022-08-26T05:17:14.898Z,99.90
2022-08-26T05:19:43.442Z,99.90
2022-08-26T05:22:13.086Z,99.90
2022-08-26T05:24:42.603Z,99.90
2022-08-26T05:27:18.145Z,99.90
2022-08-26T05:29:44.988Z,99.90
2022-08-26T05:32:11.954Z,99.90
2022-08-26T05:34:38.553Z,99.90
2022-08-26T05:37:07.978Z,99.90
2022-08-26T05:39:35.377Z,99.90
2022-08-26T05:42:03.142Z,99.90
2022-08-26T05:44:29.871Z,99.90
2022-08-26T05:47:16.605Z,99.90
2022-08-26T05:49:49.268Z,99.90
2022-08-26T05:52:18.900Z,99.90
2022-08-26T05:54:46.716Z,99.90
2022-08-26T05:57:16.486Z,99.90
2022-08-26T05:59:45.382Z,99.90
2022-08-26T06:02:12.522Z,99.90
2022-08-26T06:04:41.118Z,99.90
2022-08-26T06:07:09.895Z,99.90
2022-08-26T06:09:39.055Z,99.90
2022-08-26T06:12:08.730Z,99.90
2022-08-26T06:14:36.225Z,99.90
2022-08-26T06:17:03.886Z,99.90
2022-08-26T06:19:33.000Z,99.90
2022-08-26T06:22:23.420Z,99.90
2022-08-26T06:25:09.911Z,99.90
2022-08-26T06:27:39.529Z,99.90
2022-08-26T06:30:08.806Z,99.90
2022-08-26T06:32:36.168Z,99.90
2022-08-26T06:35:06.127Z,99.90
2022-08-26T06:37:40.284Z,99.90
2022-08-26T06:40:08.359Z,99.90
2022-08-26T06:42:35.147Z,99.90
2022-08-26T06:45:02.121Z,99.90
2022-08-26T06:47:30.240Z,99.90
2022-08-26T06:49:58.599Z,99.90
2022-08-26T06:52:25.298Z,99.90
2022-08-26T06:54:51.926Z,99.90
2022-08-26T06:57:20.817Z,99.90
2022-08-26T06:59:48.457Z,99.90
2022-08-26T07:02:19.438Z,99.90
2022-08-26T07:04:51.221Z,99.90
2022-08-26T07:07:17.909Z,99.90
2022-08-26T07:09:48.483Z,99.90
2022-08-26T07:12:19.148Z,99.90
2022-08-26T07:14:47.330Z,99.90
2022-08-26T07:17:16.651Z,99.90
2022-08-26T07:19:44.555Z,99.90
2022-08-26T07:22:12.994Z,99.90
2022-08-26T07:24:42.441Z,99.90
2022-08-26T07:27:14.295Z,99.90
2022-08-26T07:29:43.292Z,99.90
2022-08-26T07:32:13.511Z,99.90
2022-08-26T07:34:41.847Z,99.80
2022-08-26T07:37:09.033Z,99.20
2022-08-26T07:39:37.562Z,98.80
2022-08-26T07:42:08.516Z,98.60
2022-08-26T07:44:40.511Z,97.90
2022-08-26T07:47:10.152Z,97.50
2022-08-26T07:49:52.660Z,97.00
2022-08-26T07:52:21.667Z,96.60
2022-08-26T07:54:52.108Z,95.80
2022-08-26T07:57:19.082Z,95.00
2022-08-26T07:59:46.021Z,94.10
2022-08-26T08:02:13.620Z,92.80
2022-08-26T08:04:40.375Z,92.40
2022-08-26T08:07:10.563Z,91.10
2022-08-26T08:09:40.767Z,90.30
2022-08-26T08:12:08.019Z,89.60
2022-08-26T08:14:45.226Z,88.70
2022-08-26T08:17:14.311Z,87.10
2022-08-26T08:19:43.085Z,85.00
2022-08-26T08:22:17.996Z,82.20
2022-08-26T08:24:53.063Z,80.60
2022-08-26T08:27:24.030Z,77.50
2022-08-26T08:29:54.050Z,76.40
2022-08-26T08:32:21.990Z,72.70
2022-08-26T08:34:50.374Z,71.70
2022-08-26T08:37:17.291Z,69.60
2022-08-26T08:39:43.945Z,66.10
2022-08-26T08:42:27.198Z,62.30
2022-08-26T08:44:58.534Z,59.00
2022-08-26T08:47:37.598Z,57.20
2022-08-26T08:50:11.818Z,55.30
2022-08-26T08:52:43.986Z,55.00
2022-08-26T08:58:11.049Z,54.80
2022-08-26T09:00:54.143Z,54.70
2022-08-26T09:03:37.379Z,55.10
2022-08-26T09:06:17.365Z,54.40
2022-08-26T09:08:47.166Z,55.10
2022-08-26T09:11:18.935Z,55.90
2022-08-26T09:13:53.337Z,56.20
2022-08-26T09:17:05.248Z,57.10
2022-08-26T09:20:00.780Z,56.70
2022-08-26T09:22:30.203Z,58.10
2022-08-26T09:24:57.166Z,58.30
2022-08-26T09:27:38.110Z,58.50
2022-08-26T09:30:07.765Z,59.00
2022-08-26T09:32:39.323Z,60.00
2022-08-26T09:35:26.194Z,61.10
2022-08-26T09:37:54.112Z,61.40
2022-08-26T09:40:28.083Z,62.50
2022-08-26T09:43:22.491Z,63.80
2022-08-26T09:45:59.182Z,65.30
2022-08-26T09:48:28.563Z,66.20
2022-08-26T09:50:59.475Z,66.30
2022-08-26T09:53:36.903Z,65.80
2022-08-26T09:56:27.516Z,65.60
2022-08-26T09:58:56.114Z,65.20
2022-08-26T10:01:33.272Z,64.10
2022-08-26T10:04:12.357Z,63.20
2022-08-26T10:06:41.443Z,62.80
2022-08-26T10:09:13.710Z,62.90
2022-08-26T10:11:47.159Z,63.60
2022-08-26T10:14:37.168Z,65.00
2022-08-26T10:17:09.100Z,65.60
2022-08-26T10:19:41.686Z,66.60
2022-08-26T10:22:34.146Z,67.00
2022-08-26T10:25:05.402Z,67.00
2022-08-26T10:28:00.515Z,67.80
2022-08-26T10:30:44.868Z,68.80
2022-08-26T10:33:15.507Z,67.70
2022-08-26T10:35:58.405Z,68.40
2022-08-26T10:38:34.561Z,68.60
2022-08-26T10:41:24.043Z,69.00
2022-08-26T10:44:01.876Z,69.20
2022-08-26T10:46:41.355Z,68.80
2022-08-26T10:49:14.100Z,68.60
2022-08-26T10:52:05.506Z,67.90
2022-08-26T10:55:03.146Z,67.40
2022-08-26T10:57:55.318Z,67.70
2022-08-26T11:00:58.275Z,67.40
2022-08-26T11:03:39.014Z,63.20
2022-08-26T11:06:28.647Z,63.10
2022-08-26T11:09:02.717Z,62.70
2022-08-26T11:11:41.768Z,62.40
2022-08-26T11:14:10.694Z,59.80
2022-08-26T11:16:45.064Z,59.80
2022-08-26T11:19:59.542Z,59.60
2022-08-26T11:22:31.433Z,58.20
2022-08-26T11:24:58.063Z,58.40
2022-08-26T11:27:26.531Z,59.00
2022-08-26T11:29:56.134Z,60.10
2022-08-26T11:32:35.302Z,61.20
2022-08-26T11:35:05.531Z,61.90
2022-08-26T11:37:41.186Z,62.20
2022-08-26T11:40:12.997Z,63.30
2022-08-26T11:42:44.849Z,64.30
2022-08-26T11:45:34.037Z,65.00
2022-08-26T11:48:29.596Z,65.80
2022-08-26T11:51:24.279Z,66.30
2022-08-26T11:54:07.508Z,67.10
2022-08-26T11:56:35.854Z,67.60
2022-08-26T11:59:09.850Z,68.30
2022-08-26T12:01:40.008Z,68.80
2022-08-26T12:04:09.748Z,69.10
2022-08-26T12:06:42.025Z,69.50
2022-08-26T12:09:25.026Z,70.00
2022-08-26T12:11:54.037Z,70.50
2022-08-26T12:14:27.316Z,70.10
2022-08-26T12:16:55.188Z,70.50
2022-08-26T12:19:33.425Z,71.30
2022-08-26T12:22:24.169Z,71.00
2022-08-26T12:25:23.722Z,70.70
2022-08-26T12:27:53.642Z,70.20
2022-08-26T12:30:24.371Z,71.20
2022-08-26T12:33:22.320Z,70.90
2022-08-26T12:35:54.344Z,71.20
2022-08-26T12:38:24.587Z,71.10
2022-08-26T12:40:51.465Z,70.50
2022-08-26T12:43:39.228Z,70.00
2022-08-26T12:46:07.642Z,70.10
2022-08-26T12:48:39.763Z,69.00
2022-08-26T12:51:21.608Z,69.10
2022-08-26T12:53:48.208Z,68.70
2022-08-26T12:56:29.776Z,67.10
2022-08-26T12:59:20.674Z,67.30
2022-08-26T13:01:49.607Z,66.70
2022-08-26T13:04:35.088Z,66.10
2022-08-26T13:07:22.750Z,65.80
2022-08-26T13:09:51.475Z,65.60
2022-08-26T13:12:30.423Z,66.10
2022-08-26T13:14:58.761Z,65.50
2022-08-26T13:17:27.022Z,64.80
2022-08-26T13:19:54.230Z,64.50
2022-08-26T13:22:24.190Z,63.70
2022-08-26T13:24:55.650Z,64.20
2022-08-26T13:27:26.234Z,64.40
2022-08-26T13:29:54.010Z,64.10
2022-08-26T13:32:27.163Z,64.00
2022-08-26T13:34:56.277Z,63.60
2022-08-26T13:37:24.523Z,63.80
2022-08-26T13:40:02.676Z,63.80
2022-08-26T13:42:31.462Z,62.90
2022-08-26T13:44:59.622Z,63.40
2022-08-26T13:47:27.574Z,62.90
2022-08-26T13:49:55.098Z,62.90
2022-08-26T13:52:30.065Z,63.40
2022-08-26T13:54:59.848Z,63.30
2022-08-26T13:57:29.902Z,63.50
2022-08-26T13:59:58.869Z,63.80
2022-08-26T14:02:27.980Z,64.60
2022-08-26T14:04:55.262Z,65.10
2022-08-26T14:07:22.929Z,65.60
2022-08-26T14:09:49.670Z,66.30
2022-08-26T14:12:16.832Z,66.30
2022-08-26T14:14:45.212Z,66.90
2022-08-26T14:17:16.927Z,67.60
2022-08-26T14:19:48.773Z,68.00
2022-08-26T14:22:17.381Z,68.60
2022-08-26T14:24:46.992Z,68.80
2022-08-26T14:27:13.673Z,69.30
2022-08-26T14:29:42.491Z,69.30
2022-08-26T14:32:13.982Z,70.00
2022-08-26T14:34:41.740Z,70.70
2022-08-26T14:37:13.539Z,71.40
2022-08-26T14:39:41.964Z,71.50
2022-08-26T14:42:10.333Z,71.80
2022-08-26T14:44:37.708Z,71.00
2022-08-26T14:47:06.859Z,71.00
2022-08-26T14:49:33.687Z,69.80
2022-08-26T14:52:01.403Z,70.40
2022-08-26T14:54:29.837Z,70.40
2022-08-26T14:57:07.348Z,70.10
2022-08-26T14:59:42.999Z,69.10
2022-08-26T15:02:33.341Z,69.10
2022-08-26T15:05:02.011Z,69.60
2022-08-26T15:07:28.929Z,69.90
2022-08-26T15:09:55.766Z,69.90
2022-08-26T15:12:24.451Z,69.50
2022-08-26T15:14:53.873Z,69.90
2022-08-26T15:17:20.763Z,70.90
2022-08-26T15:19:49.521Z,71.50
2022-08-26T15:22:16.253Z,72.10
2022-08-26T15:24:45.912Z,72.50
2022-08-26T15:27:14.720Z,73.00
2022-08-26T15:29:41.456Z,73.50
2022-08-26T15:32:10.462Z,74.50
2022-08-26T15:34:37.981Z,75.30
2022-08-26T15:37:06.580Z,75.80
2022-08-26T15:39:34.166Z,76.10
2022-08-26T15:42:00.934Z,76.50
2022-08-26T15:44:27.837Z,77.00
2022-08-26T15:46:58.377Z,77.60
2022-08-26T15:49:33.042Z,77.60
2022-08-26T15:51:59.624Z,77.80
2022-08-26T15:54:26.196Z,77.50
2022-08-26T15:56:53.879Z,77.70
2022-08-26T15:59:21.994Z,77.40
2022-08-26T16:01:49.273Z,77.70
2022-08-26T16:04:18.641Z,77.70
2022-08-26T16:06:47.427Z,77.20
2022-08-26T16:09:14.566Z,77.10
2022-08-26T16:11:41.182Z,76.80
2022-08-26T16:14:09.665Z,77.00
2022-08-26T16:16:42.563Z,77.10
2022-08-26T16:19:09.437Z,76.80
2022-08-26T16:21:38.304Z,76.90
2022-08-26T16:24:05.656Z,76.90
2022-08-26T16:26:35.550Z,77.30
2022-08-26T16:29:05.450Z,77.30
2022-08-26T16:31:32.388Z,77.50
2022-08-26T16:33:59.929Z,77.50
2022-08-26T16:36:28.744Z,77.60
2022-08-26T16:38:56.523Z,77.80
2022-08-26T16:41:40.751Z,77.50
2022-08-26T16:44:10.879Z,77.60
2022-08-26T16:46:40.137Z,77.40
2022-08-26T16:49:07.126Z,78.00
2022-08-26T16:51:38.264Z,78.10
2022-08-26T16:54:07.175Z,78.60
2022-08-26T16:56:34.700Z,79.20
2022-08-26T16:59:04.742Z,79.30
2022-08-26T17:01:33.471Z,79.50
2022-08-26T17:04:00.150Z,80.00
2022-08-26T17:06:26.844Z,80.30
2022-08-26T17:08:53.851Z,80.90
2022-08-26T17:11:20.510Z,81.60
2022-08-26T17:13:47.701Z,82.20
2022-08-26T17:16:15.074Z,82.80
2022-08-26T17:18:43.127Z,83.30
2022-08-26T17:21:12.358Z,84.20
2022-08-26T17:23:40.870Z,84.30
2022-08-26T17:26:08.995Z,84.80
2022-08-26T17:28:35.917Z,85.30
2022-08-26T17:31:03.459Z,86.00
2022-08-26T17:33:30.166Z,86.40
2022-08-26T17:35:57.201Z,87.00
2022-08-26T17:38:26.647Z,87.70
2022-08-26T17:40:53.425Z,88.30
2022-08-26T17:43:20.188Z,88.90
2022-08-26T17:45:47.133Z,89.50
2022-08-26T17:48:14.035Z,89.90
2022-08-26T17:50:46.298Z,90.20
2022-08-26T17:53:18.709Z,90.40
2022-08-26T17:55:48.730Z,90.70
2022-08-26T17:58:23.251Z,91.10
2022-08-26T18:00:54.580Z,91.50
2022-08-26T18:03:21.201Z,91.70
2022-08-26T18:05:49.908Z,91.90
2022-08-26T18:08:16.696Z,92.20
2022-08-26T18:10:46.648Z,92.60
2022-08-26T18:13:16.352Z,92.80
2022-08-26T18:15:45.286Z,93.10
2022-08-26T18:18:15.293Z,93.50
2022-08-26T18:20:44.194Z,93.60
2022-08-26T18:23:12.646Z,93.90
2022-08-26T18:25:42.415Z,94.30
2022-08-26T18:28:09.480Z,94.80
2022-08-26T18:30:38.408Z,95.30
2022-08-26T18:33:05.540Z,95.60
2022-08-26T18:35:32.420Z,96.00
2022-08-26T18:38:01.903Z,96.30
2022-08-26T18:40:39.226Z,96.80
2022-08-26T18:43:09.299Z,97.20
2022-08-26T18:45:37.450Z,97.70
2022-08-26T18:48:04.593Z,98.00
2022-08-26T18:50:31.214Z,98.60
2022-08-26T18:53:05.800Z,99.00
2022-08-26T18:55:32.479Z,99.60
2022-08-26T18:57:59.090Z,99.90
2022-08-26T19:00:25.678Z,99.90
2022-08-26T19:02:55.758Z,99.90
2022-08-26T19:05:24.785Z,99.90
2022-08-26T19:07:51.407Z,99.90
2022-08-26T19:10:18.033Z,99.90
2022-08-26T19:12:44.616Z,99.90
2022-08-26T19:15:11.587Z,99.90
2022-08-26T19:17:40.412Z,99.90
2022-08-26T19:20:10.623Z,99.90
2022-08-26T19:22:37.292Z,99.90
2022-08-26T19:25:05.428Z,99.90
2022-08-26T19:27:32.262Z,99.90
2022-08-26T19:30:01.277Z,99.90
2022-08-26T19:32:32.924Z,99.90
2022-08-26T19:34:59.879Z,99.90
2022-08-26T19:37:26.930Z,99.90
2022-08-26T19:39:54.834Z,99.90
2022-08-26T19:42:21.464Z,99.90
2022-08-26T19:45:07.449Z,99.90
2022-08-26T19:47:40.602Z,99.90
2022-08-26T19:50:12.755Z,99.90
2022-08-26T19:52:40.909Z,99.90
2022-08-26T19:55:09.425Z,99.90
2022-08-26T19:57:37.781Z,99.90
2022-08-26T20:00:09.065Z,99.90
2022-08-26T20:02:36.246Z,99.90
2022-08-26T20:05:07.353Z,99.90
2022-08-26T20:07:34.253Z,99.90
2022-08-26T20:10:01.338Z,99.90
2022-08-26T20:12:30.824Z,99.90
2022-08-26T20:14:57.438Z,99.90
2022-08-26T20:17:24.018Z,99.90
2022-08-26T20:20:26.706Z,99.90
2022-08-26T20:22:56.507Z,99.90
2022-08-26T20:25:23.829Z,99.90
2022-08-26T20:27:53.584Z,99.90
2022-08-26T20:30:22.286Z,99.90
2022-08-26T20:32:51.029Z,99.90
2022-08-26T20:35:17.891Z,99.90
2022-08-26T20:37:44.623Z,99.90
2022-08-26T20:40:14.591Z,99.90
2022-08-26T20:42:42.807Z,99.90
2022-08-26T20:45:10.165Z,99.90
2022-08-26T20:47:39.047Z,99.90
2022-08-26T20:50:06.101Z,99.90
2022-08-26T20:52:34.745Z,99.90
2022-08-26T20:55:01.613Z,99.90
2022-08-26T20:57:30.202Z,99.90
2022-08-26T20:59:57.271Z,99.90
2022-08-26T21:02:24.189Z,99.90
2022-08-26T21:04:51.294Z,99.90
2022-08-26T21:07:21.912Z,99.90
2022-08-26T21:09:49.420Z,99.90
2022-08-26T21:12:18.216Z,99.90
2022-08-26T21:14:49.634Z,99.90
2022-08-26T21:17:18.577Z,99.90
2022-08-26T21:19:45.619Z,99.90
2022-08-26T21:22:12.278Z,99.90
2022-08-26T21:24:39.414Z,99.90
2022-08-26T21:27:05.981Z,99.90
2022-08-26T21:29:32.739Z,99.90
2022-08-26T21:32:09.517Z,99.90
2022-08-26T21:34:39.181Z,99.90
2022-08-26T21:37:13.315Z,99.90
2022-08-26T21:39:44.365Z,99.90
2022-08-26T21:42:11.192Z,99.90
2022-08-26T21:44:39.097Z,99.90
2022-08-26T21:47:06.986Z,99.90
2022-08-26T21:49:33.756Z,99.90
2022-08-26T21:52:02.680Z,99.90
2022-08-26T21:54:31.746Z,99.90
2022-08-26T21:56:58.647Z,99.90
2022-08-26T21:59:25.424Z,99.90
2022-08-26T22:01:52.317Z,99.90
2022-08-26T22:04:20.945Z,99.90
2022-08-26T22:06:52.020Z,99.90
2022-08-26T22:09:24.549Z,99.90
2022-08-26T22:11:51.921Z,99.90
2022-08-26T22:14:30.386Z,99.90
2022-08-26T22:16:58.870Z,99.90
2022-08-26T22:19:25.614Z,99.90
2022-08-26T22:21:54.738Z,99.90
2022-08-26T22:24:23.062Z,99.90
2022-08-26T22:26:51.910Z,99.90
2022-08-26T22:29:19.272Z,99.90
2022-08-26T22:31:46.601Z,99.90
2022-08-26T22:34:18.652Z,99.90
2022-08-26T22:36:46.981Z,99.90
2022-08-26T22:39:18.163Z,99.90
2022-08-26T22:41:46.553Z,99.90
2022-08-26T22:44:13.172Z,99.90
2022-08-26T22:46:41.156Z,99.90
2022-08-26T22:49:09.472Z,99.90
2022-08-26T22:51:36.749Z,99.90
2022-08-26T22:54:05.361Z,99.90
2022-08-26T22:56:32.161Z,99.90
2022-08-26T22:58:58.974Z,99.90
2022-08-26T23:01:26.459Z,99.90
2022-08-26T23:03:54.070Z,99.90
2022-08-26T23:06:22.915Z,99.90
2022-08-26T23:08:49.730Z,99.90
2022-08-26T23:11:16.314Z,99.90
2022-08-26T23:13:43.196Z,99.90
2022-08-26T23:16:13.082Z,99.90
2022-08-26T23:18:40.707Z,99.90
2022-08-26T23:21:08.248Z,99.90
2022-08-26T23:23:37.854Z,99.90
2022-08-26T23:26:06.441Z,99.90
2022-08-26T23:28:35.052Z,99.90
2022-08-26T23:31:03.838Z,99.90
2022-08-26T23:33:51.154Z,99.90
2022-08-26T23:36:22.775Z,99.90
2022-08-26T23:38:52.889Z,99.90
2022-08-26T23:41:24.008Z,99.90
2022-08-26T23:43:51.518Z,99.90
2022-08-26T23:46:19.233Z,99.90
2022-08-26T23:48:46.150Z,99.90
2022-08-26T23:51:31.903Z,99.90
2022-08-26T23:53:58.669Z,99.90
2022-08-26T23:56:26.753Z,99.90
2022-08-26T23:58:56.793Z,99.90
